sensor_id;sensor_type;location;lat;lon;timestamp;temperature;humidity
19680;DHT22;9989;48.962;9.182;2024-03-22T00:00:04;10.70;99.90
19680;DHT22;9989;48.962;9.182;2024-03-22T00:02:29;10.70;99.90
19680;DHT22;9989;48.962;9.182;2024-03-22T00:04:55;10.70;99.90
19680;DHT22;9989;48.962;9.182;2024-03-22T00:07:21;10.60;99.90
19680;DHT22;9989;48.962;9.182;2024-03-22T00:09:46;10.60;99.90
19680;DHT22;9989;48.962;9.182;2024-03-22T00:12:12;10.50;99.90
19680;DHT22;9989;48.962;9.182;2024-03-22T00:14:37;10.50;99.90
19680;DHT22;9989;48.962;9.182;2024-03-22T00:17:03;10.50;99.90
19680;DHT22;9989;48.962;9.182;2024-03-22T00:19:28;10.40;99.90
19680;DHT22;9989;48.962;9.182;2024-03-22T00:21:54;10.40;99.90
19680;DHT22;9989;48.962;9.182;2024-03-22T00:24:19;10.40;99.90
19680;DHT22;9989;48.962;9.182;2024-03-22T00:26:45;10.40;99.90
19680;DHT22;9989;48.962;9.182;2024-03-22T00:29:10;10.30;99.90
19680;DHT22;9989;48.962;9.182;2024-03-22T00:31:36;10.30;99.90
19680;DHT22;9989;48.962;9.182;2024-03-22T00:34:01;10.20;99.90
19680;DHT22;9989;48.962;9.182;2024-03-22T00:36:27;10.20;99.90
19680;DHT22;9989;48.962;9.182;2024-03-22T00:38:52;10.20;99.90
19680;DHT22;9989;48.962;9.182;2024-03-22T00:41:18;10.10;99.90
19680;DHT22;9989;48.962;9.182;2024-03-22T00:43:44;10.10;99.90
19680;DHT22;9989;48.962;9.182;2024-03-22T00:46:09;10.00;99.90
19680;DHT22;9989;48.962;9.182;2024-03-22T00:48:35;10.00;99.90
19680;DHT22;9989;48.962;9.182;2024-03-22T00:51:01;9.90;99.90
19680;DHT22;9989;48.962;9.182;2024-03-22T00:53:27;9.90;99.90
19680;DHT22;9989;48.962;9.182;2024-03-22T00:55:54;9.90;99.90
19680;DHT22;9989;48.962;9.182;2024-03-22T00:58:21;9.80;99.90
19680;DHT22;9989;48.962;9.182;2024-03-22T01:00:47;9.80;99.90
19680;DHT22;9989;48.962;9.182;2024-03-22T01:03:12;9.80;99.90
19680;DHT22;9989;48.962;9.182;2024-03-22T01:05:38;9.70;99.90
19680;DHT22;9989;48.962;9.182;2024-03-22T01:08:05;9.70;99.90
19680;DHT22;9989;48.962;9.182;2024-03-22T01:10:31;9.70;99.90
19680;DHT22;9989;48.962;9.182;2024-03-22T01:12:56;9.60;99.90
19680;DHT22;9989;48.962;9.182;2024-03-22T01:15:22;9.60;99.90
19680;DHT22;9989;48.962;9.182;2024-03-22T01:17:47;9.60;99.90
19680;DHT22;9989;48.962;9.182;2024-03-22T01:20:13;9.60;99.90
19680;DHT22;9989;48.962;9.182;2024-03-22T01:22:38;9.60;99.90
19680;DHT22;9989;48.962;9.182;2024-03-22T01:25:05;9.50;99.90
19680;DHT22;9989;48.962;9.182;2024-03-22T01:27:31;9.50;99.90
19680;DHT22;9989;48.962;9.182;2024-03-22T01:29:57;9.50;99.90
19680;DHT22;9989;48.962;9.182;2024-03-22T01:32:22;9.50;99.90
19680;DHT22;9989;48.962;9.182;2024-03-22T01:34:48;9.50;99.90
19680;DHT22;9989;48.962;9.182;2024-03-22T01:37:13;9.40;99.90
19680;DHT22;9989;48.962;9.182;2024-03-22T01:39:39;9.40;99.90
19680;DHT22;9989;48.962;9.182;2024-03-22T01:42:04;9.40;99.90
19680;DHT22;9989;48.962;9.182;2024-03-22T01:44:32;9.40;99.90
19680;DHT22;9989;48.962;9.182;2024-03-22T01:46:58;9.40;99.90
19680;DHT22;9989;48.962;9.182;2024-03-22T01:49:25;9.30;99.90
19680;DHT22;9989;48.962;9.182;2024-03-22T01:51:52;9.30;99.90
19680;DHT22;9989;48.962;9.182;2024-03-22T01:54:17;9.30;99.90
19680;DHT22;9989;48.962;9.182;2024-03-22T01:56:44;9.30;99.90
19680;DHT22;9989;48.962;9.182;2024-03-22T01:59:10;9.30;99.90
19680;DHT22;9989;48.962;9.182;2024-03-22T02:01:35;9.30;99.90
19680;DHT22;9989;48.962;9.182;2024-03-22T02:04:01;9.30;99.90
19680;DHT22;9989;48.962;9.182;2024-03-22T02:06:27;9.20;99.90
19680;DHT22;9989;48.962;9.182;2024-03-22T02:08:52;9.20;99.90
19680;DHT22;9989;48.962;9.182;2024-03-22T02:11:18;9.20;99.90
19680;DHT22;9989;48.962;9.182;2024-03-22T02:13:45;9.20;99.90
19680;DHT22;9989;48.962;9.182;2024-03-22T02:16:10;9.10;99.90
19680;DHT22;9989;48.962;9.182;2024-03-22T02:18:36;9.10;99.90
19680;DHT22;9989;48.962;9.182;2024-03-22T02:21:02;9.10;99.90
19680;DHT22;9989;48.962;9.182;2024-03-22T02:23:38;9.10;99.90
19680;DHT22;9989;48.962;9.182;2024-03-22T02:26:05;9.10;99.90
19680;DHT22;9989;48.962;9.182;2024-03-22T02:28:31;9.00;99.90
19680;DHT22;9989;48.962;9.182;2024-03-22T02:31:00;9.00;99.90
19680;DHT22;9989;48.962;9.182;2024-03-22T02:33:26;9.00;99.90
19680;DHT22;9989;48.962;9.182;2024-03-22T02:35:52;9.00;99.90
19680;DHT22;9989;48.962;9.182;2024-03-22T02:38:18;8.90;99.90
19680;DHT22;9989;48.962;9.182;2024-03-22T02:40:44;8.90;99.90
19680;DHT22;9989;48.962;9.182;2024-03-22T02:43:10;8.90;99.90
19680;DHT22;9989;48.962;9.182;2024-03-22T02:45:36;8.90;99.90
19680;DHT22;9989;48.962;9.182;2024-03-22T02:48:01;8.80;99.90
19680;DHT22;9989;48.962;9.182;2024-03-22T02:50:27;8.80;99.90
19680;DHT22;9989;48.962;9.182;2024-03-22T02:52:52;8.80;99.90
19680;DHT22;9989;48.962;9.182;2024-03-22T02:55:18;8.80;99.90
19680;DHT22;9989;48.962;9.182;2024-03-22T02:57:44;8.90;99.90
19680;DHT22;9989;48.962;9.182;2024-03-22T03:00:09;8.90;99.90
19680;DHT22;9989;48.962;9.182;2024-03-22T03:02:35;8.90;99.90
19680;DHT22;9989;48.962;9.182;2024-03-22T03:05:01;9.00;99.90
19680;DHT22;9989;48.962;9.182;2024-03-22T03:07:27;9.00;99.90
19680;DHT22;9989;48.962;9.182;2024-03-22T03:09:55;9.00;99.90
19680;DHT22;9989;48.962;9.182;2024-03-22T03:12:20;9.00;99.90
19680;DHT22;9989;48.962;9.182;2024-03-22T03:14:46;9.00;99.90
19680;DHT22;9989;48.962;9.182;2024-03-22T03:17:12;9.00;99.90
19680;DHT22;9989;48.962;9.182;2024-03-22T03:19:37;9.10;99.90
19680;DHT22;9989;48.962;9.182;2024-03-22T03:22:03;9.10;99.90
19680;DHT22;9989;48.962;9.182;2024-03-22T03:24:29;9.10;99.90
19680;DHT22;9989;48.962;9.182;2024-03-22T03:26:54;9.10;99.90
19680;DHT22;9989;48.962;9.182;2024-03-22T03:29:20;9.10;99.90
19680;DHT22;9989;48.962;9.182;2024-03-22T03:31:46;9.10;99.90
19680;DHT22;9989;48.962;9.182;2024-03-22T03:34:11;9.10;99.90
19680;DHT22;9989;48.962;9.182;2024-03-22T03:36:37;9.10;99.90
19680;DHT22;9989;48.962;9.182;2024-03-22T03:39:03;9.10;99.90
19680;DHT22;9989;48.962;9.182;2024-03-22T03:41:29;9.10;99.90
19680;DHT22;9989;48.962;9.182;2024-03-22T03:43:55;9.10;99.90
19680;DHT22;9989;48.962;9.182;2024-03-22T03:46:20;9.10;99.90
19680;DHT22;9989;48.962;9.182;2024-03-22T03:48:46;9.10;99.90
19680;DHT22;9989;48.962;9.182;2024-03-22T03:51:11;9.10;99.90
19680;DHT22;9989;48.962;9.182;2024-03-22T03:53:37;9.00;99.90
19680;DHT22;9989;48.962;9.182;2024-03-22T03:56:03;9.00;99.90
19680;DHT22;9989;48.962;9.182;2024-03-22T03:58:28;9.00;99.90
19680;DHT22;9989;48.962;9.182;2024-03-22T04:00:54;9.00;99.90
19680;DHT22;9989;48.962;9.182;2024-03-22T04:03:19;9.00;99.90
19680;DHT22;9989;48.962;9.182;2024-03-22T04:05:45;9.00;99.90
19680;DHT22;9989;48.962;9.182;2024-03-22T04:08:10;9.00;99.90
19680;DHT22;9989;48.962;9.182;2024-03-22T04:10:36;9.00;99.90
19680;DHT22;9989;48.962;9.182;2024-03-22T04:13:02;9.00;99.90
19680;DHT22;9989;48.962;9.182;2024-03-22T04:15:27;8.90;99.90
19680;DHT22;9989;48.962;9.182;2024-03-22T04:17:56;8.90;99.90
19680;DHT22;9989;48.962;9.182;2024-03-22T04:20:21;8.90;99.90
19680;DHT22;9989;48.962;9.182;2024-03-22T04:22:47;8.90;99.90
19680;DHT22;9989;48.962;9.182;2024-03-22T04:25:15;8.90;99.90
19680;DHT22;9989;48.962;9.182;2024-03-22T04:27:40;8.90;99.90
19680;DHT22;9989;48.962;9.182;2024-03-22T04:30:07;8.90;99.90
19680;DHT22;9989;48.962;9.182;2024-03-22T04:32:33;9.00;99.90
19680;DHT22;9989;48.962;9.182;2024-03-22T04:34:59;9.00;99.90
19680;DHT22;9989;48.962;9.182;2024-03-22T04:37:24;9.00;99.90
19680;DHT22;9989;48.962;9.182;2024-03-22T04:39:50;9.00;99.90
19680;DHT22;9989;48.962;9.182;2024-03-22T04:42:16;9.00;99.90
19680;DHT22;9989;48.962;9.182;2024-03-22T04:44:41;9.00;99.90
19680;DHT22;9989;48.962;9.182;2024-03-22T04:47:07;9.00;99.90
19680;DHT22;9989;48.962;9.182;2024-03-22T04:49:33;9.10;99.90
19680;DHT22;9989;48.962;9.182;2024-03-22T04:51:58;9.10;99.90
19680;DHT22;9989;48.962;9.182;2024-03-22T04:54:24;9.10;99.90
19680;DHT22;9989;48.962;9.182;2024-03-22T04:56:50;9.10;99.90
19680;DHT22;9989;48.962;9.182;2024-03-22T04:59:15;9.10;99.90
19680;DHT22;9989;48.962;9.182;2024-03-22T05:01:41;9.20;99.90
19680;DHT22;9989;48.962;9.182;2024-03-22T05:04:07;9.20;99.90
19680;DHT22;9989;48.962;9.182;2024-03-22T05:06:32;9.20;99.90
19680;DHT22;9989;48.962;9.182;2024-03-22T05:08:58;9.10;99.90
19680;DHT22;9989;48.962;9.182;2024-03-22T05:11:23;9.20;99.90
19680;DHT22;9989;48.962;9.182;2024-03-22T05:13:49;9.20;99.90
19680;DHT22;9989;48.962;9.182;2024-03-22T05:16:15;9.20;99.90
19680;DHT22;9989;48.962;9.182;2024-03-22T05:18:40;9.20;99.90
19680;DHT22;9989;48.962;9.182;2024-03-22T05:21:06;9.20;99.90
19680;DHT22;9989;48.962;9.182;2024-03-22T05:23:31;9.20;99.90
19680;DHT22;9989;48.962;9.182;2024-03-22T05:25:57;9.20;99.90
19680;DHT22;9989;48.962;9.182;2024-03-22T05:28:25;9.20;99.90
19680;DHT22;9989;48.962;9.182;2024-03-22T05:30:50;9.20;99.90
19680;DHT22;9989;48.962;9.182;2024-03-22T05:33:16;9.20;99.90
19680;DHT22;9989;48.962;9.182;2024-03-22T05:35:41;9.20;99.90
19680;DHT22;9989;48.962;9.182;2024-03-22T05:38:07;9.20;99.90
19680;DHT22;9989;48.962;9.182;2024-03-22T05:40:33;9.20;99.90
19680;DHT22;9989;48.962;9.182;2024-03-22T05:43:01;9.30;99.90
19680;DHT22;9989;48.962;9.182;2024-03-22T05:45:26;9.30;99.90
19680;DHT22;9989;48.962;9.182;2024-03-22T05:47:52;9.30;99.90
19680;DHT22;9989;48.962;9.182;2024-03-22T05:50:17;9.30;99.90
19680;DHT22;9989;48.962;9.182;2024-03-22T05:52:43;9.30;99.90
19680;DHT22;9989;48.962;9.182;2024-03-22T05:55:08;9.30;99.90
19680;DHT22;9989;48.962;9.182;2024-03-22T05:57:34;9.30;99.90
19680;DHT22;9989;48.962;9.182;2024-03-22T05:59:59;9.40;99.90
19680;DHT22;9989;48.962;9.182;2024-03-22T06:02:25;9.40;99.90
19680;DHT22;9989;48.962;9.182;2024-03-22T06:04:50;9.40;99.90
19680;DHT22;9989;48.962;9.182;2024-03-22T06:07:16;9.40;99.90
19680;DHT22;9989;48.962;9.182;2024-03-22T06:09:42;9.50;99.90
19680;DHT22;9989;48.962;9.182;2024-03-22T06:12:15;9.50;99.90
19680;DHT22;9989;48.962;9.182;2024-03-22T06:14:41;9.50;99.90
19680;DHT22;9989;48.962;9.182;2024-03-22T06:17:08;9.50;99.90
19680;DHT22;9989;48.962;9.182;2024-03-22T06:19:35;9.50;99.90
19680;DHT22;9989;48.962;9.182;2024-03-22T06:22:00;9.50;99.90
19680;DHT22;9989;48.962;9.182;2024-03-22T06:24:26;9.60;99.90
19680;DHT22;9989;48.962;9.182;2024-03-22T06:26:52;9.60;99.90
19680;DHT22;9989;48.962;9.182;2024-03-22T06:29:17;9.70;99.90
19680;DHT22;9989;48.962;9.182;2024-03-22T06:31:43;9.80;99.90
19680;DHT22;9989;48.962;9.182;2024-03-22T06:34:09;9.90;99.90
19680;DHT22;9989;48.962;9.182;2024-03-22T06:36:34;10.00;99.90
19680;DHT22;9989;48.962;9.182;2024-03-22T06:39:00;10.20;99.90
19680;DHT22;9989;48.962;9.182;2024-03-22T06:41:26;10.30;99.90
19680;DHT22;9989;48.962;9.182;2024-03-22T06:43:52;10.50;99.90
19680;DHT22;9989;48.962;9.182;2024-03-22T06:46:17;10.60;99.90
19680;DHT22;9989;48.962;9.182;2024-03-22T06:48:43;10.80;99.90
19680;DHT22;9989;48.962;9.182;2024-03-22T06:51:08;10.90;99.90
19680;DHT22;9989;48.962;9.182;2024-03-22T06:53:34;11.10;99.90
19680;DHT22;9989;48.962;9.182;2024-03-22T06:55:59;11.20;99.90
19680;DHT22;9989;48.962;9.182;2024-03-22T06:58:25;11.30;99.90
19680;DHT22;9989;48.962;9.182;2024-03-22T07:00:51;11.40;99.90
19680;DHT22;9989;48.962;9.182;2024-03-22T07:03:16;11.60;99.90
19680;DHT22;9989;48.962;9.182;2024-03-22T07:05:42;11.60;99.90
19680;DHT22;9989;48.962;9.182;2024-03-22T07:08:08;11.70;99.90
19680;DHT22;9989;48.962;9.182;2024-03-22T07:10:38;11.80;99.90
19680;DHT22;9989;48.962;9.182;2024-03-22T07:13:05;11.80;99.90
19680;DHT22;9989;48.962;9.182;2024-03-22T07:15:30;11.80;99.90
19680;DHT22;9989;48.962;9.182;2024-03-22T07:17:58;11.80;99.90
19680;DHT22;9989;48.962;9.182;2024-03-22T07:20:24;11.90;99.90
19680;DHT22;9989;48.962;9.182;2024-03-22T07:22:49;12.00;99.90
19680;DHT22;9989;48.962;9.182;2024-03-22T07:25:15;12.10;99.90
19680;DHT22;9989;48.962;9.182;2024-03-22T07:27:41;12.20;99.90
19680;DHT22;9989;48.962;9.182;2024-03-22T07:30:06;12.20;99.90
19680;DHT22;9989;48.962;9.182;2024-03-22T07:32:32;12.30;99.90
19680;DHT22;9989;48.962;9.182;2024-03-22T07:34:58;12.40;99.90
19680;DHT22;9989;48.962;9.182;2024-03-22T07:37:24;12.50;99.90
19680;DHT22;9989;48.962;9.182;2024-03-22T07:39:49;12.60;99.90
19680;DHT22;9989;48.962;9.182;2024-03-22T07:42:16;12.80;99.90
19680;DHT22;9989;48.962;9.182;2024-03-22T07:44:42;12.80;99.90
19680;DHT22;9989;48.962;9.182;2024-03-22T07:47:07;12.90;99.90
19680;DHT22;9989;48.962;9.182;2024-03-22T07:49:33;13.00;99.90
19680;DHT22;9989;48.962;9.182;2024-03-22T07:52:00;13.10;99.90
19680;DHT22;9989;48.962;9.182;2024-03-22T07:54:25;13.20;99.90
19680;DHT22;9989;48.962;9.182;2024-03-22T07:56:51;13.40;99.90
19680;DHT22;9989;48.962;9.182;2024-03-22T07:59:17;13.50;99.90
19680;DHT22;9989;48.962;9.182;2024-03-22T08:01:42;13.70;99.90
19680;DHT22;9989;48.962;9.182;2024-03-22T08:04:08;13.80;99.90
19680;DHT22;9989;48.962;9.182;2024-03-22T08:06:33;14.10;99.90
19680;DHT22;9989;48.962;9.182;2024-03-22T08:08:59;14.30;99.90
19680;DHT22;9989;48.962;9.182;2024-03-22T08:11:26;14.50;99.90
19680;DHT22;9989;48.962;9.182;2024-03-22T08:13:52;14.60;99.90
19680;DHT22;9989;48.962;9.182;2024-03-22T08:16:18;14.80;99.90
19680;DHT22;9989;48.962;9.182;2024-03-22T08:18:45;15.10;99.90
19680;DHT22;9989;48.962;9.182;2024-03-22T08:21:10;15.30;99.90
19680;DHT22;9989;48.962;9.182;2024-03-22T08:23:36;15.50;99.90
19680;DHT22;9989;48.962;9.182;2024-03-22T08:26:01;15.70;99.90
19680;DHT22;9989;48.962;9.182;2024-03-22T08:28:27;15.90;99.90
19680;DHT22;9989;48.962;9.182;2024-03-22T08:30:53;16.10;99.90
19680;DHT22;9989;48.962;9.182;2024-03-22T08:33:18;16.40;99.90
19680;DHT22;9989;48.962;9.182;2024-03-22T08:35:44;16.60;99.90
19680;DHT22;9989;48.962;9.182;2024-03-22T08:38:10;17.00;99.90
19680;DHT22;9989;48.962;9.182;2024-03-22T08:40:39;17.20;99.90
19680;DHT22;9989;48.962;9.182;2024-03-22T08:43:06;17.50;99.90
19680;DHT22;9989;48.962;9.182;2024-03-22T08:45:33;17.70;99.90
19680;DHT22;9989;48.962;9.182;2024-03-22T08:47:58;17.80;99.90
19680;DHT22;9989;48.962;9.182;2024-03-22T08:50:24;17.90;99.90
19680;DHT22;9989;48.962;9.182;2024-03-22T08:52:50;18.10;99.90
19680;DHT22;9989;48.962;9.182;2024-03-22T08:55:16;18.10;99.90
19680;DHT22;9989;48.962;9.182;2024-03-22T08:57:42;18.20;99.90
19680;DHT22;9989;48.962;9.182;2024-03-22T09:00:09;18.30;99.90
19680;DHT22;9989;48.962;9.182;2024-03-22T09:02:36;18.40;99.90
19680;DHT22;9989;48.962;9.182;2024-03-22T09:05:04;18.60;99.90
19680;DHT22;9989;48.962;9.182;2024-03-22T09:07:29;18.70;99.90
19680;DHT22;9989;48.962;9.182;2024-03-22T09:09:55;18.80;99.90
19680;DHT22;9989;48.962;9.182;2024-03-22T09:12:21;19.00;99.90
19680;DHT22;9989;48.962;9.182;2024-03-22T09:14:46;19.30;99.90
19680;DHT22;9989;48.962;9.182;2024-03-22T09:17:12;19.60;99.90
19680;DHT22;9989;48.962;9.182;2024-03-22T09:19:37;19.90;99.90
19680;DHT22;9989;48.962;9.182;2024-03-22T09:22:03;20.20;99.90
19680;DHT22;9989;48.962;9.182;2024-03-22T09:24:29;20.40;99.90
19680;DHT22;9989;48.962;9.182;2024-03-22T09:26:54;20.80;99.30
19680;DHT22;9989;48.962;9.182;2024-03-22T09:29:20;21.00;98.10
19680;DHT22;9989;48.962;9.182;2024-03-22T09:31:46;21.30;97.30
19680;DHT22;9989;48.962;9.182;2024-03-22T09:34:14;21.60;96.00
19680;DHT22;9989;48.962;9.182;2024-03-22T09:36:41;21.80;94.60
19680;DHT22;9989;48.962;9.182;2024-03-22T09:39:07;22.00;94.10
19680;DHT22;9989;48.962;9.182;2024-03-22T09:41:39;22.20;93.30
19680;DHT22;9989;48.962;9.182;2024-03-22T09:44:06;22.30;92.60
19680;DHT22;9989;48.962;9.182;2024-03-22T09:46:33;22.30;91.20
19680;DHT22;9989;48.962;9.182;2024-03-22T09:49:01;22.30;91.40
19680;DHT22;9989;48.962;9.182;2024-03-22T09:51:27;22.30;90.40
19680;DHT22;9989;48.962;9.182;2024-03-22T09:53:54;22.20;88.90
19680;DHT22;9989;48.962;9.182;2024-03-22T09:56:21;22.10;90.00
19680;DHT22;9989;48.962;9.182;2024-03-22T09:58:48;22.10;90.50
19680;DHT22;9989;48.962;9.182;2024-03-22T10:01:13;22.20;90.00
19680;DHT22;9989;48.962;9.182;2024-03-22T10:03:39;22.20;90.40
19680;DHT22;9989;48.962;9.182;2024-03-22T10:06:05;22.40;90.40
19680;DHT22;9989;48.962;9.182;2024-03-22T10:08:30;22.40;89.50
19680;DHT22;9989;48.962;9.182;2024-03-22T10:10:56;22.50;88.10
19680;DHT22;9989;48.962;9.182;2024-03-22T10:13:22;22.20;87.00
19680;DHT22;9989;48.962;9.182;2024-03-22T10:15:48;21.50;89.50
19680;DHT22;9989;48.962;9.182;2024-03-22T10:18:14;21.40;90.50
19680;DHT22;9989;48.962;9.182;2024-03-22T10:20:41;21.50;90.80
19680;DHT22;9989;48.962;9.182;2024-03-22T10:23:08;21.70;90.30
19680;DHT22;9989;48.962;9.182;2024-03-22T10:25:33;21.90;88.00
19680;DHT22;9989;48.962;9.182;2024-03-22T10:27:59;21.80;87.50
19680;DHT22;9989;48.962;9.182;2024-03-22T10:30:25;21.80;86.50
19680;DHT22;9989;48.962;9.182;2024-03-22T10:32:51;21.80;86.60
19680;DHT22;9989;48.962;9.182;2024-03-22T10:35:18;21.90;87.00
19680;DHT22;9989;48.962;9.182;2024-03-22T10:37:44;21.90;87.20
19680;DHT22;9989;48.962;9.182;2024-03-22T10:40:10;21.80;82.70
19680;DHT22;9989;48.962;9.182;2024-03-22T10:42:37;22.00;83.40
19680;DHT22;9989;48.962;9.182;2024-03-22T10:45:04;22.30;80.70
19680;DHT22;9989;48.962;9.182;2024-03-22T10:47:32;22.80;81.20
19680;DHT22;9989;48.962;9.182;2024-03-22T10:50:09;23.20;76.30
19680;DHT22;9989;48.962;9.182;2024-03-22T10:52:58;23.40;75.20
19680;DHT22;9989;48.962;9.182;2024-03-22T10:55:29;23.50;74.50
19680;DHT22;9989;48.962;9.182;2024-03-22T10:57:57;23.50;72.60
19680;DHT22;9989;48.962;9.182;2024-03-22T11:00:34;23.40;72.10
19680;DHT22;9989;48.962;9.182;2024-03-22T11:03:02;23.50;72.30
19680;DHT22;9989;48.962;9.182;2024-03-22T11:05:28;23.60;70.60
19680;DHT22;9989;48.962;9.182;2024-03-22T11:08:04;23.70;69.80
19680;DHT22;9989;48.962;9.182;2024-03-22T11:10:33;23.90;70.40
19680;DHT22;9989;48.962;9.182;2024-03-22T11:13:03;24.10;70.20
19680;DHT22;9989;48.962;9.182;2024-03-22T11:15:30;24.70;70.10
19680;DHT22;9989;48.962;9.182;2024-03-22T11:17:56;25.00;66.20
19680;DHT22;9989;48.962;9.182;2024-03-22T11:20:22;24.70;65.60
19680;DHT22;9989;48.962;9.182;2024-03-22T11:22:47;24.40;65.70
19680;DHT22;9989;48.962;9.182;2024-03-22T11:25:13;24.50;64.50
19680;DHT22;9989;48.962;9.182;2024-03-22T11:27:39;24.20;66.20
19680;DHT22;9989;48.962;9.182;2024-03-22T11:30:05;24.30;66.10
19680;DHT22;9989;48.962;9.182;2024-03-22T11:32:31;24.50;64.30
19680;DHT22;9989;48.962;9.182;2024-03-22T11:34:57;24.60;63.70
19680;DHT22;9989;48.962;9.182;2024-03-22T11:37:22;24.30;63.70
19680;DHT22;9989;48.962;9.182;2024-03-22T11:39:48;24.40;65.00
19680;DHT22;9989;48.962;9.182;2024-03-22T11:42:15;24.60;64.90
19680;DHT22;9989;48.962;9.182;2024-03-22T11:44:42;24.70;64.40
19680;DHT22;9989;48.962;9.182;2024-03-22T11:47:08;25.10;63.90
19680;DHT22;9989;48.962;9.182;2024-03-22T11:49:34;25.30;60.60
19680;DHT22;9989;48.962;9.182;2024-03-22T11:52:00;25.10;60.00
19680;DHT22;9989;48.962;9.182;2024-03-22T11:54:26;25.10;59.90
19680;DHT22;9989;48.962;9.182;2024-03-22T11:56:55;25.10;60.80
19680;DHT22;9989;48.962;9.182;2024-03-22T11:59:20;25.00;60.90
19680;DHT22;9989;48.962;9.182;2024-03-22T12:01:47;24.90;60.20
19680;DHT22;9989;48.962;9.182;2024-03-22T12:04:12;24.60;61.80
19680;DHT22;9989;48.962;9.182;2024-03-22T12:06:44;24.40;61.90
19680;DHT22;9989;48.962;9.182;2024-03-22T12:09:13;24.20;63.00
19680;DHT22;9989;48.962;9.182;2024-03-22T12:11:40;24.00;63.40
19680;DHT22;9989;48.962;9.182;2024-03-22T12:14:06;23.80;62.50
19680;DHT22;9989;48.962;9.182;2024-03-22T12:16:31;23.60;62.70
19680;DHT22;9989;48.962;9.182;2024-03-22T12:18:58;23.40;64.50
19680;DHT22;9989;48.962;9.182;2024-03-22T12:21:24;23.30;65.10
19680;DHT22;9989;48.962;9.182;2024-03-22T12:23:49;23.20;64.80
19680;DHT22;9989;48.962;9.182;2024-03-22T12:26:15;23.10;65.80
19680;DHT22;9989;48.962;9.182;2024-03-22T12:28:40;23.00;66.70
19680;DHT22;9989;48.962;9.182;2024-03-22T12:31:08;23.00;65.90
19680;DHT22;9989;48.962;9.182;2024-03-22T12:33:33;23.00;64.30
19680;DHT22;9989;48.962;9.182;2024-03-22T12:35:59;22.70;64.10
19680;DHT22;9989;48.962;9.182;2024-03-22T12:38:25;22.50;64.60
19680;DHT22;9989;48.962;9.182;2024-03-22T12:40:51;22.30;64.10
19680;DHT22;9989;48.962;9.182;2024-03-22T12:43:16;22.00;64.50
19680;DHT22;9989;48.962;9.182;2024-03-22T12:45:42;21.90;65.80
19680;DHT22;9989;48.962;9.182;2024-03-22T12:48:08;21.80;65.60
19680;DHT22;9989;48.962;9.182;2024-03-22T12:50:35;21.60;66.80
19680;DHT22;9989;48.962;9.182;2024-03-22T12:53:00;21.50;67.90
19680;DHT22;9989;48.962;9.182;2024-03-22T12:55:26;21.40;68.10
19680;DHT22;9989;48.962;9.182;2024-03-22T12:57:54;21.50;68.60
19680;DHT22;9989;48.962;9.182;2024-03-22T13:00:19;21.50;68.00
19680;DHT22;9989;48.962;9.182;2024-03-22T13:02:45;21.60;67.70
19680;DHT22;9989;48.962;9.182;2024-03-22T13:05:12;21.70;68.70
19680;DHT22;9989;48.962;9.182;2024-03-22T13:07:37;21.80;69.20
19680;DHT22;9989;48.962;9.182;2024-03-22T13:10:03;21.90;69.20
19680;DHT22;9989;48.962;9.182;2024-03-22T13:12:29;22.00;69.50
19680;DHT22;9989;48.962;9.182;2024-03-22T13:15:00;22.00;68.10
19680;DHT22;9989;48.962;9.182;2024-03-22T13:17:25;22.00;67.90
19680;DHT22;9989;48.962;9.182;2024-03-22T13:19:51;22.00;67.90
19680;DHT22;9989;48.962;9.182;2024-03-22T13:22:16;22.00;68.30
19680;DHT22;9989;48.962;9.182;2024-03-22T13:24:44;22.10;67.80
19680;DHT22;9989;48.962;9.182;2024-03-22T13:27:10;22.10;67.00
19680;DHT22;9989;48.962;9.182;2024-03-22T13:29:37;22.10;67.60
19680;DHT22;9989;48.962;9.182;2024-03-22T13:32:03;22.10;67.20
19680;DHT22;9989;48.962;9.182;2024-03-22T13:34:29;22.30;67.30
19680;DHT22;9989;48.962;9.182;2024-03-22T13:36:55;22.30;66.30
19680;DHT22;9989;48.962;9.182;2024-03-22T13:39:21;22.20;65.90
19680;DHT22;9989;48.962;9.182;2024-03-22T13:41:48;22.10;66.40
19680;DHT22;9989;48.962;9.182;2024-03-22T13:44:14;21.90;66.90
19680;DHT22;9989;48.962;9.182;2024-03-22T13:46:39;21.80;67.90
19680;DHT22;9989;48.962;9.182;2024-03-22T13:49:14;21.80;67.40
19680;DHT22;9989;48.962;9.182;2024-03-22T13:51:50;21.70;68.10
19680;DHT22;9989;48.962;9.182;2024-03-22T13:54:15;21.70;69.60
19680;DHT22;9989;48.962;9.182;2024-03-22T13:56:41;21.80;69.70
19680;DHT22;9989;48.962;9.182;2024-03-22T13:59:07;21.80;67.30
19680;DHT22;9989;48.962;9.182;2024-03-22T14:01:36;21.80;64.60
19680;DHT22;9989;48.962;9.182;2024-03-22T14:04:05;21.80;64.30
19680;DHT22;9989;48.962;9.182;2024-03-22T14:06:31;21.70;62.60
19680;DHT22;9989;48.962;9.182;2024-03-22T14:08:57;21.60;62.40
19680;DHT22;9989;48.962;9.182;2024-03-22T14:11:29;21.40;60.50
19680;DHT22;9989;48.962;9.182;2024-03-22T14:13:59;21.30;61.40
19680;DHT22;9989;48.962;9.182;2024-03-22T14:16:25;21.20;61.40
19680;DHT22;9989;48.962;9.182;2024-03-22T14:18:51;21.10;61.50
19680;DHT22;9989;48.962;9.182;2024-03-22T14:21:17;21.00;61.40
19680;DHT22;9989;48.962;9.182;2024-03-22T14:23:46;20.90;62.40
19680;DHT22;9989;48.962;9.182;2024-03-22T14:26:12;20.80;63.30
19680;DHT22;9989;48.962;9.182;2024-03-22T14:28:38;20.70;64.00
19680;DHT22;9989;48.962;9.182;2024-03-22T14:31:09;20.60;64.30
19680;DHT22;9989;48.962;9.182;2024-03-22T14:33:35;20.50;64.80
19680;DHT22;9989;48.962;9.182;2024-03-22T14:36:02;20.50;65.50
19680;DHT22;9989;48.962;9.182;2024-03-22T14:38:28;20.40;64.80
19680;DHT22;9989;48.962;9.182;2024-03-22T14:40:54;20.30;65.50
19680;DHT22;9989;48.962;9.182;2024-03-22T14:43:21;20.20;65.70
19680;DHT22;9989;48.962;9.182;2024-03-22T14:45:47;20.10;66.30
19680;DHT22;9989;48.962;9.182;2024-03-22T14:48:13;20.10;66.00
19680;DHT22;9989;48.962;9.182;2024-03-22T14:50:38;20.00;66.40
19680;DHT22;9989;48.962;9.182;2024-03-22T14:53:07;19.90;66.20
19680;DHT22;9989;48.962;9.182;2024-03-22T14:55:32;19.90;67.20
19680;DHT22;9989;48.962;9.182;2024-03-22T14:57:58;19.80;67.50
19680;DHT22;9989;48.962;9.182;2024-03-22T15:00:23;19.70;67.50
19680;DHT22;9989;48.962;9.182;2024-03-22T15:02:52;19.60;67.50
19680;DHT22;9989;48.962;9.182;2024-03-22T15:05:18;19.50;67.90
19680;DHT22;9989;48.962;9.182;2024-03-22T15:07:44;19.40;69.20
19680;DHT22;9989;48.962;9.182;2024-03-22T15:10:09;19.40;69.60
19680;DHT22;9989;48.962;9.182;2024-03-22T15:12:35;19.30;70.00
19680;DHT22;9989;48.962;9.182;2024-03-22T15:15:00;19.30;71.10
19680;DHT22;9989;48.962;9.182;2024-03-22T15:17:26;19.20;71.00
19680;DHT22;9989;48.962;9.182;2024-03-22T15:19:51;19.20;71.20
19680;DHT22;9989;48.962;9.182;2024-03-22T15:22:17;19.20;71.70
19680;DHT22;9989;48.962;9.182;2024-03-22T15:24:46;19.20;72.60
19680;DHT22;9989;48.962;9.182;2024-03-22T15:27:12;19.20;72.20
19680;DHT22;9989;48.962;9.182;2024-03-22T15:29:38;19.10;72.50
19680;DHT22;9989;48.962;9.182;2024-03-22T15:32:05;19.10;72.80
19680;DHT22;9989;48.962;9.182;2024-03-22T15:34:30;19.00;73.20
19680;DHT22;9989;48.962;9.182;2024-03-22T15:36:56;19.00;74.40
19680;DHT22;9989;48.962;9.182;2024-03-22T15:39:21;19.00;75.10
19680;DHT22;9989;48.962;9.182;2024-03-22T15:41:48;18.90;75.10
19680;DHT22;9989;48.962;9.182;2024-03-22T15:44:14;18.90;75.30